Aeroporto :
LOGIN :

Iscrizione | Disclaimer

   EN    FR    IT 

 










Sommario :    VFR   VFR Marginale   IFR   IFR Intensivo   IFR Molto Intensivo
Visibilità : 
Base nubi : 
>= 8 km
>= 3000ft
5 / 8 km
1000 / 3000 ft
1500m / 5 km
500 / 1000 ft
800 / 1500m
200 / 500 ft
< 800m
< 200 ft
Simboli :   Temporali  Nebbia  Neve Forte  Precipitazioni Forti  Vento > 20 kt
SIGMETs :   Varie  Temporali  Ghiacco  Turbolenza  Onda orograficha  Ceneri Vulcaniche







- Altitudine del aeroporto : 158 ft
- Codice IATA : QAR


EHDL - Deelen Airbase

ULTIMO METAR :
  • 252325Z AUTO 14006KT 090V180 7000 BR FEW015CB SCT069 BKN077 BKN084 11/10 Q1008 WHT

METARs OBSOLETI :
  • 252255Z AUTO 14003KT 090V180 5000 -RA FEW015CB SCT049 BKN054 11/10 Q1008 WHT
  • 252225Z AUTO 14004KT 080V190 7000 BR FEW015CB SCT053 BKN066 11/10 Q1009 WHT
  • 252155Z AUTO 16004KT 100V220 9000 -RA FEW015CB SCT054 BKN069 11/10 Q1009 BLU
  • 252125Z AUTO 15006KT 090V250 9999 FEW015CB SCT067 BKN084 11/10 Q1009 BLU
  • 252055Z AUTO 11005KT 070V160 9999 FEW015CB BKN091 OVC097 11/10 Q1008 BLU
  • 252034Z AUTO 12006KT 070V160 9999 FEW015CB SCT056 BKN079 11/11 Q1008 BLU

TAF TAF EHDL
Valido dal 25 a 17 ore il 26 a 05 ore UTC


251647Z 2517/2605 19008KT CAVOK
TEMPO 2517/2601 19017G27KT SCT040CB BKN045
PROB30
TEMPO 2517/2601 20020G30KT 3500 SHRA TSRA FEW012 BKN030CB
Nessun NOTAM noto per questo aeroporto.



MetMap, La meteo Aeronautica in un colpo d'occhio ! - Copyright ORBIFLY Dicembre 2007 - Disclaimer

ORBIFLY MET'MAP TEAM :

Programmazione e sviluppo : Alexandra Zaïnal
Concezione e sviluppo : Baudouin d'Aumeries
Co-Programmazione e sviluppo : Marc-Olivier Méhu
Supporto tecnico e logistico : Manuel Goepfert
Aiuto per la traduzione : Arnaldo La Scala

Contatto : metmap@orbifly.com




FONTI E CREDITI :

   NOAA